Time;durP1;ratioP1;P1;durP2;ratioP2;P2;SDS_P1;SDS_P2;PMS_P1;PMS_P2;Temp;Humidity;BMP_temperature;BMP_pressure;BME280_temperature;BME280_humidity;BME280_pressure;Samples;Min_cycle;Max_cycle;Signal;HPM_P1;HPM_P2
2021/12/13 00:01:31;;;;;;;9.05;5.40;;;12.70;99.90;;;;;;5053387;28;20395;-61
2021/12/13 00:04:22;;;;;;;7.72;5.13;;;12.80;99.90;;;;;;5052838;28;20052;-60
2021/12/13 00:06:50;;;;;;;9.07;5.45;;;13.00;99.90;;;;;;5052300;28;20053;-60
2021/12/13 00:09:19;;;;;;;8.82;5.28;;;12.90;99.90;;;;;;5052806;28;20060;-60
2021/12/13 00:11:48;;;;;;;8.70;4.93;;;12.80;99.90;;;;;;5052880;28;20391;-60
2021/12/13 00:14:22;;;;;;;12.02;5.30;;;12.50;99.90;;;;;;5051131;28;20037;-60
2021/12/13 00:16:49;;;;;;;9.82;5.35;;;;;;;;;;5051887;28;20040;-64
2021/12/13 00:19:18;;;;;;;7.57;5.00;;;12.80;99.90;;;;;;5026673;28;20040;-63
2021/12/13 00:21:45;;;;;;;9.55;5.55;;;;;;;;;;5053204;28;20055;-63
2021/12/13 00:24:33;;;;;;;7.68;4.72;;;12.80;99.90;;;;;;5053825;28;20052;-63
2021/12/13 00:27:24;;;;;;;9.57;5.15;;;12.70;99.90;;;;;;5052888;28;20091;-64
2021/12/13 00:30:15;;;;;;;8.48;4.93;;;12.90;99.90;;;;;;4991674;28;20050;-63
2021/12/13 00:33:01;;;;;;;9.02;5.10;;;12.50;99.90;;;;;;4974019;28;20129;-62
2021/12/13 00:35:33;;;;;;;8.80;4.88;;;12.90;99.90;;;;;;4992030;28;20061;-63
2021/12/13 00:38:02;;;;;;;7.43;4.50;;;12.80;99.90;;;;;;4975753;28;20077;-62
2021/12/13 00:40:33;;;;;;;7.85;4.80;;;12.90;99.90;;;;;;4991438;28;20055;-63
2021/12/13 00:43:42;;;;;;;8.90;5.20;;;12.80;99.90;;;;;;4991830;28;20046;-63
2021/12/13 00:46:10;;;;;;;7.35;4.53;;;12.70;99.90;;;;;;4910540;29;20179;-63
2021/12/13 00:48:38;;;;;;;7.65;4.88;;;13.00;99.90;;;;;;4912046;29;20098;-62
2021/12/13 00:51:16;;;;;;;7.70;4.57;;;12.80;99.90;;;;;;4919423;29;20048;-63
2021/12/13 00:53:44;;;;;;;7.68;4.40;;;12.80;99.90;;;;;;4934041;29;20119;-63
2021/12/13 00:56:42;;;;;;;8.77;4.68;;;12.70;99.90;;;;;;4918556;29;20047;-63
2021/12/13 00:59:12;;;;;;;7.65;4.75;;;12.80;99.90;;;;;;4932033;29;20099;-63
2021/12/13 01:01:38;;;;;;;7.43;4.75;;;12.90;99.90;;;;;;4928506;29;20111;-63
2021/12/13 01:04:09;;;;;;;9.35;5.07;;;12.80;99.90;;;;;;4930772;29;20051;-63
2021/12/13 01:07:12;;;;;;;7.07;4.43;;;12.80;99.90;;;;;;4937084;28;20059;-63
2021/12/13 01:09:59;;;;;;;8.55;4.40;;;13.10;99.90;;;;;;4972177;28;20097;-63
2021/12/13 01:12:25;;;;;;;7.75;4.30;;;12.80;99.90;;;;;;4971539;28;20070;-63
2021/12/13 01:15:02;;;;;;;7.45;4.18;;;12.90;99.90;;;;;;4955490;28;20090;-63
2021/12/13 01:17:59;;;;;;;6.80;3.80;;;12.70;99.90;;;;;;4971923;28;20053;-63
2021/12/13 01:20:42;;;;;;;6.13;3.63;;;12.80;99.90;;;;;;4964793;28;20042;-63
2021/12/13 01:23:13;;;;;;;7.85;4.32;;;12.90;99.90;;;;;;5062930;28;20482;-63
2021/12/13 01:26:00;;;;;;;7.70;4.10;;;;;;;;;;5074979;28;20379;-62
2021/12/13 01:28:28;;;;;;;6.28;4.10;;;13.00;99.90;;;;;;5076855;28;20041;-63
2021/12/13 01:30:56;;;;;;;8.88;4.63;;;12.60;99.90;;;;;;5076817;28;20044;-63
2021/12/13 01:33:23;;;;;;;7.25;3.95;;;12.80;99.90;;;;;;5075777;28;20040;-63
2021/12/13 01:35:51;;;;;;;7.10;3.90;;;12.80;99.90;;;;;;5076199;28;20059;-63
2021/12/13 01:38:31;;;;;;;7.75;4.35;;;13.10;99.90;;;;;;5075734;28;20075;-64
2021/12/13 01:40:57;;;;;;;6.43;3.85;;;12.80;99.90;;;;;;5076705;28;20430;-63
2021/12/13 01:43:25;;;;;;;6.55;4.00;;;;;;;;;;5076210;28;20067;-63
2021/12/13 01:45:52;;;;;;;6.90;4.25;;;12.50;99.90;;;;;;5075612;28;20052;-63
2021/12/13 01:48:29;;;;;;;7.50;4.38;;;12.70;99.90;;;;;;5076226;28;20059;-64
2021/12/13 01:51:04;;;;;;;6.93;4.20;;;12.70;99.90;;;;;;5076198;28;20119;-63
2021/12/13 01:53:51;;;;;;;6.45;3.88;;;12.90;99.90;;;;;;5076124;28;20033;-63
2021/12/13 01:56:52;;;;;;;7.45;4.25;;;13.00;99.90;;;;;;5075540;28;20071;-63
2021/12/13 02:02:23;;;;;;;7.03;3.90;;;13.20;99.90;;;;;;5055114;28;20522;-62
2021/12/13 02:05:11;;;;;;;6.63;4.00;;;12.90;99.90;;;;;;5075331;28;20044;-63
2021/12/13 02:07:44;;;;;;;7.20;4.18;;;12.70;99.90;;;;;;5045615;28;20131;-63
2021/12/13 02:10:30;;;;;;;6.70;3.80;;;13.00;99.90;;;;;;5057890;28;20391;-63
2021/12/13 02:13:03;;;;;;;7.72;4.40;;;13.00;99.90;;;;;;5075775;28;20483;-63
2021/12/13 02:18:38;;;;;;;8.45;4.32;;;12.90;99.90;;;;;;4959343;28;20054;-63
2021/12/13 02:21:17;;;;;;;8.75;4.47;;;12.80;99.90;;;;;;4975421;28;20168;-63
2021/12/13 02:23:44;;;;;;;8.00;4.60;;;;;;;;;;4990497;28;20094;-63
2021/12/13 02:26:10;;;;;;;7.57;4.43;;;12.90;99.90;;;;;;4978405;28;20102;-64
2021/12/13 02:28:37;;;;;;;7.63;4.80;;;13.10;99.90;;;;;;4992560;28;20050;-64
2021/12/13 02:31:05;;;;;;;7.78;5.07;;;;;;;;;;4977226;28;20094;-63
2021/12/13 02:33:52;;;;;;;8.48;5.20;;;12.80;99.90;;;;;;4969580;28;20058;-63
2021/12/13 02:36:21;;;;;;;8.57;4.95;;;12.70;99.90;;;;;;4973982;28;20401;-63
2021/12/13 02:38:47;;;;;;;8.90;5.35;;;13.10;99.90;;;;;;4975261;28;20118;-65
2021/12/13 02:41:14;;;;;;;7.60;4.75;;;12.90;99.90;;;;;;4975653;28;20532;-64
2021/12/13 02:43:44;;;;;;;7.72;4.88;;;13.10;99.90;;;;;;4974778;28;20094;-62
2021/12/13 02:46:10;;;;;;;8.07;5.13;;;13.20;99.90;;;;;;4979928;28;20058;-63
2021/12/13 02:48:50;;;;;;;9.68;5.10;;;13.00;99.90;;;;;;4994535;28;20106;-64
2021/12/13 02:51:17;;;;;;;7.55;4.63;;;13.10;99.90;;;;;;5071679;28;20052;-63
2021/12/13 02:53:46;;;;;;;9.70;5.43;;;13.20;99.90;;;;;;5075057;28;20045;-63
2021/12/13 02:56:12;;;;;;;9.15;5.22;;;13.00;99.90;;;;;;5074202;28;20490;-63
2021/12/13 02:58:40;;;;;;;9.30;5.05;;;13.00;99.90;;;;;;5072843;28;20064;-64
2021/12/13 03:01:08;;;;;;;8.90;5.20;;;13.00;99.90;;;;;;5056430;28;20037;-63
2021/12/13 03:03:36;;;;;;;9.15;5.00;;;12.70;99.90;;;;;;5073329;28;20045;-62
2021/12/13 03:06:03;;;;;;;10.30;5.30;;;13.20;99.90;;;;;;5074032;28;20119;-63
2021/12/13 03:08:34;;;;;;;10.38;5.25;;;13.00;99.90;;;;;;5056746;28;20045;-64
2021/12/13 03:11:02;;;;;;;9.48;5.25;;;13.10;99.90;;;;;;5057808;28;20049;-63
2021/12/13 03:13:30;;;;;;;9.82;4.93;;;13.00;99.90;;;;;;5059893;28;20037;-63
2021/12/13 03:16:25;;;;;;;8.90;5.30;;;12.80;99.90;;;;;;5074389;28;20076;-65
2021/12/13 03:18:57;;;;;;;10.27;5.15;;;;;;;;;;5074703;28;20059;-63
2021/12/13 03:21:44;;;;;;;9.02;5.22;;;13.10;99.90;;;;;;5073074;28;20070;-64
2021/12/13 03:24:23;;;;;;;9.20;4.90;;;12.80;99.90;;;;;;5073877;28;20037;-62
2021/12/13 03:27:01;;;;;;;9.73;5.30;;;12.80;99.90;;;;;;5073956;28;20051;-61
2021/12/13 03:29:45;;;;;;;7.90;4.43;;;13.20;99.90;;;;;;5065442;28;20105;-61
2021/12/13 03:32:12;;;;;;;10.35;5.47;;;13.20;99.90;;;;;;5069993;28;20393;-61
2021/12/13 03:34:40;;;;;;;7.85;4.82;;;13.30;99.90;;;;;;5074810;28;20048;-61
2021/12/13 03:37:17;;;;;;;7.38;4.80;;;12.90;99.90;;;;;;5072902;28;20045;-64
2021/12/13 03:39:48;;;;;;;8.55;5.10;;;13.20;99.90;;;;;;5073961;28;20040;-63
2021/12/13 03:42:19;;;;;;;9.23;4.60;;;13.00;99.90;;;;;;5073192;28;20063;-63
2021/12/13 03:44:47;;;;;;;9.40;5.22;;;13.00;99.90;;;;;;5073685;28;20048;-64
2021/12/13 03:47:17;;;;;;;7.57;4.78;;;13.10;99.90;;;;;;5055601;28;20091;-63
2021/12/13 03:49:46;;;;;;;8.57;4.97;;;12.80;99.90;;;;;;5056140;28;20048;-64
2021/12/13 03:52:14;;;;;;;9.75;5.03;;;12.60;99.90;;;;;;5072680;28;20040;-63
2021/12/13 03:54:41;;;;;;;8.43;4.80;;;13.10;99.90;;;;;;5073572;28;20119;-63
2021/12/13 03:57:07;;;;;;;8.55;5.10;;;12.90;99.90;;;;;;5073708;28;20052;-64
2021/12/13 03:59:34;;;;;;;8.90;4.85;;;12.80;99.90;;;;;;5072357;28;20359;-64
2021/12/13 04:02:02;;;;;;;10.18;4.95;;;;;;;;;;5056126;28;20044;-63
2021/12/13 04:04:52;;;;;;;8.43;5.30;;;12.90;99.90;;;;;;5071291;28;20039;-65
2021/12/13 04:07:20;;;;;;;9.95;5.35;;;12.90;99.90;;;;;;5054724;28;20052;-63
2021/12/13 04:09:48;;;;;;;8.77;5.25;;;;;;;;;;5073305;28;20041;-63
2021/12/13 04:12:15;;;;;;;8.10;5.30;;;;;;;;;;5072973;28;20040;-63
2021/12/13 04:14:54;;;;;;;9.48;5.65;;;13.10;99.90;;;;;;5064027;28;20037;-63
2021/12/13 04:20:23;;;;;;;11.02;5.10;;;13.10;99.90;;;;;;5031588;28;20421;-62
2021/12/13 04:22:51;;;;;;;9.30;5.47;;;13.00;99.90;;;;;;5029728;28;20061;-64
2021/12/13 04:25:20;;;;;;;9.13;5.35;;;13.20;99.90;;;;;;5024731;28;20140;-63
2021/12/13 04:28:09;;;;;;;10.27;5.35;;;13.00;99.90;;;;;;5031975;28;20053;-64
2021/12/13 04:30:56;;;;;;;9.15;4.75;;;13.00;99.90;;;;;;5024111;28;20042;-63
2021/12/13 04:33:30;;;;;;;7.78;4.97;;;13.00;99.90;;;;;;5031531;28;20045;-63
2021/12/13 04:35:58;;;;;;;8.68;5.45;;;12.90;99.90;;;;;;5019321;28;20470;-63
2021/12/13 04:38:28;;;;;;;9.13;5.18;;;13.10;99.90;;;;;;5030830;28;20125;-63
2021/12/13 04:40:54;;;;;;;10.10;5.30;;;12.80;99.90;;;;;;5031480;28;20045;-63
2021/12/13 04:43:20;;;;;;;8.95;4.80;;;12.70;99.90;;;;;;5030805;28;20513;-63
2021/12/13 04:45:53;;;;;;;9.18;5.07;;;13.20;99.90;;;;;;5028832;28;20041;-62
2021/12/13 04:48:21;;;;;;;11.05;4.90;;;12.80;99.90;;;;;;5024182;28;20058;-63
2021/12/13 04:50:58;;;;;;;8.43;4.70;;;;;;;;;;5011396;28;20491;-64
2021/12/13 04:53:29;;;;;;;10.45;4.72;;;13.10;99.90;;;;;;5011175;28;20084;-63
2021/12/13 04:55:56;;;;;;;7.65;3.97;;;13.20;99.90;;;;;;5010944;28;20120;-63
2021/12/13 04:58:22;;;;;;;9.82;4.47;;;13.00;99.90;;;;;;5048248;28;20061;-63
2021/12/13 05:00:50;;;;;;;10.48;4.72;;;13.00;99.90;;;;;;5051379;28;20044;-63
2021/12/13 05:03:18;;;;;;;8.32;4.28;;;13.10;99.90;;;;;;5052903;28;20053;-63
2021/12/13 05:05:44;;;;;;;9.27;5.18;;;12.90;99.90;;;;;;5052571;28;20049;-63
2021/12/13 05:08:13;;;;;;;8.98;4.13;;;13.00;99.90;;;;;;5045449;28;20037;-63
2021/12/13 05:10:40;;;;;;;7.75;3.83;;;;;;;;;;5052438;28;20383;-63
2021/12/13 05:13:20;;;;;;;9.38;4.53;;;13.00;99.90;;;;;;5051773;28;20048;-63
2021/12/13 05:15:55;;;;;;;8.98;3.75;;;13.00;99.90;;;;;;5052905;28;20059;-64
2021/12/13 05:18:26;;;;;;;7.75;3.78;;;13.00;99.90;;;;;;5052518;28;20175;-64
2021/12/13 05:21:01;;;;;;;6.63;3.63;;;13.00;99.90;;;;;;5051556;28;20057;-63
2021/12/13 05:23:27;;;;;;;6.72;3.45;;;13.00;99.90;;;;;;5033904;28;20494;-64
2021/12/13 05:25:58;;;;;;;8.20;3.92;;;13.20;99.90;;;;;;5052237;28;20051;-63
2021/12/13 05:28:25;;;;;;;7.30;3.75;;;;;;;;;;5052183;28;20228;-62
2021/12/13 05:31:06;;;;;;;8.18;3.80;;;12.90;99.90;;;;;;5052545;28;20124;-63
2021/12/13 05:33:34;;;;;;;6.93;3.30;;;13.20;99.90;;;;;;5053021;28;20041;-63
2021/12/13 05:36:04;;;;;;;7.30;3.25;;;13.30;99.90;;;;;;5052718;28;20451;-62
2021/12/13 05:38:32;;;;;;;7.68;3.20;;;13.20;99.90;;;;;;5052852;28;20073;-64
2021/12/13 05:41:01;;;;;;;5.70;2.95;;;13.10;99.90;;;;;;5051419;28;20049;-64
2021/12/13 05:43:49;;;;;;;8.93;3.28;;;13.10;99.90;;;;;;5052496;28;20041;-63
2021/12/13 05:46:18;;;;;;;6.70;3.45;;;13.10;99.90;;;;;;5052519;28;20077;-63
2021/12/13 05:48:51;;;;;;;6.55;3.05;;;13.10;99.90;;;;;;5062419;28;20391;-63
2021/12/13 05:51:40;;;;;;;7.45;3.10;;;13.00;99.90;;;;;;5072365;28;20052;-63
2021/12/13 05:54:36;;;;;;;6.72;2.75;;;13.00;99.90;;;;;;5072496;28;20037;-62
2021/12/13 05:57:09;;;;;;;8.13;2.83;;;13.10;99.90;;;;;;5000399;28;20086;-63
2021/12/13 05:59:38;;;;;;;7.43;3.15;;;13.00;99.90;;;;;;5010182;28;20128;-64
2021/12/13 06:02:10;;;;;;;7.38;3.13;;;12.90;99.90;;;;;;5025404;28;20048;-63
2021/12/13 06:04:36;;;;;;;6.95;3.20;;;13.20;99.90;;;;;;5026131;28;20046;-63
2021/12/13 06:07:11;;;;;;;6.32;3.10;;;12.90;99.90;;;;;;5023171;28;20037;-64
2021/12/13 06:10:00;;;;;;;8.07;3.15;;;13.00;99.90;;;;;;4991259;28;20102;-64
2021/12/13 06:12:48;;;;;;;6.97;3.03;;;13.00;99.90;;;;;;5010767;28;20060;-62
2021/12/13 06:15:17;;;;;;;8.02;3.70;;;;;;;;;;4975439;28;20055;-63
2021/12/13 06:17:53;;;;;;;6.43;3.00;;;13.00;99.90;;;;;;4987658;28;20529;-64
2021/12/13 06:20:28;;;;;;;6.90;2.90;;;13.10;99.90;;;;;;4987934;28;20153;-64
2021/12/13 06:23:27;;;;;;;6.35;3.33;;;13.10;99.90;;;;;;4983097;28;20046;-62
2021/12/13 06:25:58;;;;;;;7.38;2.83;;;13.00;99.90;;;;;;4936469;29;20056;-62
2021/12/13 06:28:32;;;;;;;7.38;3.13;;;13.10;99.90;;;;;;4929586;29;20039;-63
2021/12/13 06:31:18;;;;;;;6.10;3.10;;;13.10;99.90;;;;;;4939270;29;20067;-63
2021/12/13 06:33:57;;;;;;;7.10;3.42;;;13.00;99.90;;;;;;4956096;28;20050;-63
2021/12/13 06:36:26;;;;;;;6.68;3.00;;;12.90;99.90;;;;;;4978169;28;20066;-63
2021/12/13 06:38:53;;;;;;;7.80;2.95;;;13.10;99.90;;;;;;4993756;28;20133;-63
2021/12/13 06:41:28;;;;;;;6.13;2.90;;;12.70;99.90;;;;;;4977616;28;20050;-63
2021/12/13 06:44:15;;;;;;;7.25;2.78;;;13.10;99.90;;;;;;4993538;28;20054;-63
2021/12/13 06:47:01;;;;;;;9.07;3.05;;;13.00;99.90;;;;;;4994334;28;20058;-64
2021/12/13 06:49:34;;;;;;;6.78;3.53;;;13.10;99.90;;;;;;4974934;28;20068;-62
2021/12/13 06:52:12;;;;;;;5.95;3.38;;;12.90;99.90;;;;;;4993967;28;20054;-63
2021/12/13 06:54:42;;;;;;;6.15;3.20;;;13.00;99.90;;;;;;4993514;28;20085;-64
2021/12/13 06:57:29;;;;;;;7.63;3.30;;;12.80;99.90;;;;;;4961960;28;20057;-63
2021/12/13 07:00:06;;;;;;;5.68;3.15;;;13.20;99.90;;;;;;4994389;28;20129;-64
2021/12/13 07:02:40;;;;;;;7.25;3.17;;;13.00;99.90;;;;;;5018788;28;20092;-65
2021/12/13 07:05:06;;;;;;;6.30;3.58;;;13.10;99.90;;;;;;5055950;28;20055;-64
2021/12/13 07:07:55;;;;;;;7.35;3.70;;;13.00;99.90;;;;;;5057258;28;20056;-64
2021/12/13 07:10:34;;;;;;;9.05;3.53;;;12.80;99.90;;;;;;5074423;28;20045;-63
2021/12/13 07:13:05;;;;;;;7.32;3.55;;;13.20;99.90;;;;;;5074802;28;20482;-63
2021/12/13 07:15:46;;;;;;;8.02;3.45;;;13.30;99.90;;;;;;5073672;28;20045;-63
2021/12/13 07:18:35;;;;;;;6.43;3.42;;;;;;;;;;5073816;28;20402;-67
2021/12/13 07:21:03;;;;;;;7.25;3.38;;;13.20;99.90;;;;;;4987586;28;20424;-64
2021/12/13 07:23:54;;;;;;;8.52;3.42;;;13.10;99.90;;;;;;4992097;28;20062;-67
2021/12/13 07:26:28;;;;;;;6.90;3.10;;;13.40;99.90;;;;;;4999795;28;20058;-64
2021/12/13 07:28:54;;;;;;;7.45;3.50;;;13.00;99.90;;;;;;4997203;28;20117;-63
2021/12/13 07:31:20;;;;;;;6.30;3.05;;;13.20;99.90;;;;;;4992328;28;20464;-63
2021/12/13 07:33:46;;;;;;;7.45;3.05;;;13.20;99.90;;;;;;4976574;28;20076;-63
2021/12/13 07:36:26;;;;;;;7.25;3.50;;;13.20;99.90;;;;;;4992040;28;20093;-65
2021/12/13 07:38:56;;;;;;;7.15;3.25;;;13.20;99.90;;;;;;4989971;28;20060;-66
2021/12/13 07:41:23;;;;;;;8.18;3.40;;;13.10;99.90;;;;;;4991223;28;20034;-65
2021/12/13 07:43:49;;;;;;;6.30;3.47;;;13.30;99.90;;;;;;4999676;28;20042;-63
2021/12/13 07:46:20;;;;;;;6.75;3.38;;;13.10;99.90;;;;;;4993310;28;20109;-64
2021/12/13 07:48:46;;;;;;;6.93;3.50;;;13.20;99.90;;;;;;4956986;28;20054;-63
2021/12/13 07:51:29;;;;;;;6.85;3.72;;;13.40;99.90;;;;;;4983023;28;20149;-64
2021/12/13 07:53:57;;;;;;;8.15;3.58;;;13.30;99.90;;;;;;4992318;28;20409;-65
2021/12/13 07:56:29;;;;;;;7.07;3.47;;;13.20;99.90;;;;;;4991949;28;20050;-64
2021/12/13 07:59:02;;;;;;;7.35;3.85;;;13.30;99.90;;;;;;5029615;28;20084;-65
2021/12/13 08:01:28;;;;;;;7.82;4.30;;;13.00;99.90;;;;;;5047854;28;20121;-63
2021/12/13 08:03:57;;;;;;;6.97;3.50;;;13.30;99.90;;;;;;5053873;28;20056;-63
2021/12/13 08:06:28;;;;;;;6.72;3.78;;;13.10;99.90;;;;;;5050839;28;20047;-64
2021/12/13 08:08:56;;;;;;;7.38;4.32;;;13.30;99.90;;;;;;5053503;28;20110;-65
2021/12/13 08:11:57;;;;;;;8.57;4.20;;;13.40;99.90;;;;;;5053465;28;20048;-67
2021/12/13 08:14:37;;;;;;;9.70;4.35;;;13.40;99.90;;;;;;4972407;28;20469;-64
2021/12/13 08:17:17;;;;;;;7.45;3.75;;;13.40;99.90;;;;;;4971692;28;20057;-65
2021/12/13 08:19:44;;;;;;;8.75;4.60;;;13.30;99.90;;;;;;4969877;28;20453;-63
2021/12/13 08:22:12;;;;;;;7.03;3.70;;;13.50;99.90;;;;;;4969982;28;20125;-64
2021/12/13 08:24:44;;;;;;;7.20;4.22;;;13.10;99.90;;;;;;4954544;28;20058;-65
2021/12/13 08:27:16;;;;;;;9.23;4.38;;;13.10;99.90;;;;;;4971267;28;20047;-64
2021/12/13 08:29:42;;;;;;;7.60;4.00;;;13.40;99.90;;;;;;4971413;28;20201;-61
2021/12/13 08:32:17;;;;;;;8.02;4.65;;;13.10;99.90;;;;;;4971479;28;20164;-64
2021/12/13 08:34:47;;;;;;;8.95;4.78;;;13.20;99.90;;;;;;4972193;28;20053;-65
2021/12/13 08:37:18;;;;;;;7.72;4.93;;;;;;;;;;4972047;28;20385;-65
2021/12/13 08:39:46;;;;;;;8.02;4.78;;;13.30;99.90;;;;;;4971339;28;20039;-65
2021/12/13 08:42:16;;;;;;;9.57;5.03;;;12.90;99.90;;;;;;4956445;28;20056;-61
2021/12/13 08:45:09;;;;;;;9.02;5.45;;;13.50;99.90;;;;;;4970979;28;20489;-64
2021/12/13 08:47:42;;;;;;;8.80;5.10;;;13.40;99.90;;;;;;4972747;28;20432;-62
2021/12/13 08:50:13;;;;;;;8.10;5.38;;;13.40;99.90;;;;;;5032928;28;20059;-62
2021/12/13 08:52:41;;;;;;;9.48;5.72;;;13.40;99.90;;;;;;5052938;28;20052;-62
2021/12/13 08:55:13;;;;;;;9.93;6.20;;;13.20;99.90;;;;;;5051708;28;20095;-66
2021/12/13 08:57:45;;;;;;;10.55;5.90;;;13.60;99.90;;;;;;5053147;28;20526;-61
2021/12/13 09:00:14;;;;;;;10.88;6.63;;;13.10;99.90;;;;;;5050343;28;20556;-62
2021/12/13 09:03:01;;;;;;;11.45;6.97;;;13.50;99.90;;;;;;5052476;28;20056;-62
2021/12/13 09:05:34;;;;;;;11.75;7.38;;;13.30;99.90;;;;;;5034415;28;20053;-62
2021/12/13 09:08:08;;;;;;;12.80;6.82;;;13.10;99.90;;;;;;5052262;28;20114;-61
2021/12/13 09:10:48;;;;;;;12.68;7.65;;;13.20;99.90;;;;;;5051491;28;20099;-60
2021/12/13 09:13:16;;;;;;;10.68;6.85;;;13.40;99.90;;;;;;5052386;28;20052;-64
2021/12/13 09:15:42;;;;;;;12.38;7.30;;;;;;;;;;5051725;28;20423;-64
2021/12/13 09:18:08;;;;;;;11.75;7.15;;;13.50;99.90;;;;;;5033339;28;20393;-63
2021/12/13 09:20:45;;;;;;;13.68;8.43;;;13.40;99.90;;;;;;5037946;28;20063;-66
2021/12/13 09:23:37;;;;;;;13.38;7.97;;;13.30;99.90;;;;;;5045756;28;20037;-64
2021/12/13 09:26:11;;;;;;;12.68;8.07;;;;;;;;;;5028042;28;20064;-64
2021/12/13 09:29:01;;;;;;;13.82;8.20;;;13.30;99.90;;;;;;5041984;28;20052;-62
2021/12/13 09:31:45;;;;;;;12.48;8.38;;;13.40;99.90;;;;;;5048645;28;20052;-64
2021/12/13 09:34:18;;;;;;;13.75;8.80;;;13.50;99.90;;;;;;5034893;28;20051;-64
2021/12/13 09:36:45;;;;;;;15.50;8.98;;;13.40;99.90;;;;;;5053142;28;20123;-63
2021/12/13 09:39:27;;;;;;;12.90;8.48;;;13.30;99.90;;;;;;5053043;28;20111;-64
2021/12/13 09:42:11;;;;;;;13.63;9.05;;;13.40;99.90;;;;;;5051960;28;20052;-63
2021/12/13 09:44:55;;;;;;;13.27;9.15;;;13.40;99.90;;;;;;5040132;28;20053;-65
2021/12/13 09:47:23;;;;;;;14.95;9.52;;;13.50;99.90;;;;;;5056776;28;20512;-69
2021/12/13 09:49:58;;;;;;;15.00;10.45;;;13.40;99.90;;;;;;5055951;28;20061;-64
2021/12/13 09:52:29;;;;;;;14.30;9.77;;;13.70;99.90;;;;;;5071893;28;20548;-68
2021/12/13 09:55:15;;;;;;;14.88;10.30;;;13.50;99.90;;;;;;5076360;28;20052;-62
2021/12/13 09:57:56;;;;;;;13.90;10.27;;;13.50;99.90;;;;;;5075501;28;20045;-61
2021/12/13 10:00:49;;;;;;;14.18;9.77;;;13.50;99.90;;;;;;5066838;28;20402;-61
2021/12/13 10:03:35;;;;;;;;;;;13.40;99.90;;;;;;5076952;28;20489;-64
2021/12/13 10:06:04;;;;;;;13.82;9.48;;;13.10;99.90;;;;;;5065013;28;19927;-61
2021/12/13 10:08:40;;;;;;;14.55;10.38;;;13.40;99.90;;;;;;5076512;28;20044;-61
2021/12/13 10:11:16;;;;;;;15.05;9.90;;;13.40;99.90;;;;;;5076482;28;20406;-60
2021/12/13 10:13:42;;;;;;;14.25;9.75;;;13.50;99.90;;;;;;5076106;28;20119;-61
2021/12/13 10:16:13;;;;;;;21.90;10.70;;;13.50;99.90;;;;;;5075452;28;20083;-62
2021/12/13 10:18:40;;;;;;;23.10;11.23;;;13.70;99.90;;;;;;5076322;28;20048;-61
2021/12/13 10:21:24;;;;;;;21.80;11.25;;;13.60;99.90;;;;;;5076339;28;20426;-61
2021/12/13 10:23:57;;;;;;;21.08;10.20;;;13.50;99.90;;;;;;5076265;28;20425;-61
2021/12/13 10:26:27;;;;;;;18.55;10.85;;;13.70;99.90;;;;;;5075341;28;20172;-61
2021/12/13 10:28:56;;;;;;;19.25;10.70;;;13.70;99.90;;;;;;5075253;28;20036;-61
2021/12/13 10:31:38;;;;;;;17.33;10.77;;;13.60;99.90;;;;;;5075457;28;20036;-62
2021/12/13 10:34:07;;;;;;;21.30;11.27;;;13.60;99.90;;;;;;5074526;28;20167;-61
2021/12/13 10:36:34;;;;;;;20.42;11.32;;;13.70;99.90;;;;;;5074558;28;20063;-61
2021/12/13 10:39:03;;;;;;;22.83;11.98;;;13.70;99.90;;;;;;5074675;28;20055;-68
2021/12/13 10:41:37;;;;;;;18.00;11.52;;;13.70;99.90;;;;;;5075911;28;20060;-62
2021/12/13 10:44:06;;;;;;;19.20;11.55;;;13.50;99.90;;;;;;5075138;28;20044;-61
2021/12/13 10:46:34;;;;;;;18.00;11.85;;;13.70;99.90;;;;;;5075506;28;20048;-61
2021/12/13 10:49:04;;;;;;;18.80;12.55;;;13.80;99.90;;;;;;5074266;28;20045;-61
2021/12/13 10:51:33;;;;;;;16.60;11.52;;;13.40;99.90;;;;;;5074946;28;20103;-62
2021/12/13 10:54:00;;;;;;;16.60;11.88;;;;;;;;;;5074974;28;20047;-67
2021/12/13 10:56:28;;;;;;;17.98;11.75;;;13.70;99.90;;;;;;5074463;28;20084;-61
2021/12/13 10:58:56;;;;;;;19.23;12.30;;;13.80;99.90;;;;;;5073145;28;20042;-60
2021/12/13 11:01:27;;;;;;;18.98;13.40;;;13.70;99.90;;;;;;5074099;28;20046;-63
2021/12/13 11:03:55;;;;;;;18.58;12.40;;;13.40;99.90;;;;;;5075431;28;20036;-60
2021/12/13 11:06:21;;;;;;;16.80;12.80;;;13.90;99.90;;;;;;5075229;28;20040;-61
2021/12/13 11:08:48;;;;;;;19.25;12.90;;;;;;;;;;5075393;28;20453;-63
2021/12/13 11:11:26;;;;;;;18.05;13.50;;;13.90;99.90;;;;;;5074905;28;20445;-63
2021/12/13 11:13:54;;;;;;;17.13;12.95;;;13.80;99.90;;;;;;5057327;28;20044;-61
2021/12/13 11:16:29;;;;;;;17.83;13.00;;;13.70;99.90;;;;;;5075182;28;20445;-62
2021/12/13 11:18:55;;;;;;;21.23;14.23;;;14.00;99.90;;;;;;5075567;28;20041;-60
2021/12/13 11:21:26;;;;;;;28.55;12.73;;;14.00;99.90;;;;;;5074454;28;20059;-61
2021/12/13 11:23:53;;;;;;;24.65;13.25;;;13.60;99.90;;;;;;5074938;28;20049;-61
2021/12/13 11:26:20;;;;;;;22.50;12.80;;;13.60;99.90;;;;;;5074640;28;20076;-62
2021/12/13 11:28:47;;;;;;;23.25;12.80;;;13.60;99.90;;;;;;5074663;28;20036;-61
2021/12/13 11:31:15;;;;;;;21.48;12.45;;;13.50;99.90;;;;;;5074325;28;20406;-61
2021/12/13 11:33:42;;;;;;;24.63;12.15;;;13.50;99.90;;;;;;5074802;28;20045;-68
2021/12/13 11:36:08;;;;;;;22.80;12.45;;;13.50;99.90;;;;;;5074774;28;20097;-68
2021/12/13 11:39:11;;;;;;;21.50;12.65;;;13.70;99.90;;;;;;5074465;28;20049;-68
2021/12/13 11:41:53;;;;;;;22.60;11.48;;;13.70;99.90;;;;;;5073719;28;20056;-62
2021/12/13 11:44:25;;;;;;;15.20;10.77;;;13.70;99.90;;;;;;5054666;28;20042;-61
2021/12/13 11:47:34;;;;;;;22.85;11.15;;;13.70;99.90;;;;;;5054514;28;20045;-61
2021/12/13 11:50:22;;;;;;;18.17;11.07;;;13.90;99.90;;;;;;4954056;29;20126;-64
2021/12/13 11:53:09;;;;;;;18.77;10.55;;;13.90;99.90;;;;;;4962992;28;20046;-61
2021/12/13 11:55:53;;;;;;;17.20;10.93;;;14.00;99.90;;;;;;5012648;28;20050;-62
2021/12/13 11:58:44;;;;;;;16.75;10.32;;;13.60;99.90;;;;;;5012382;28;20050;-62
2021/12/13 12:01:50;;;;;;;18.55;10.02;;;13.60;99.90;;;;;;5012318;28;20062;-67
2021/12/13 12:04:53;;;;;;;18.30;10.18;;;13.70;99.90;;;;;;5001603;28;20042;-66
2021/12/13 12:07:26;;;;;;;17.45;9.77;;;14.00;99.90;;;;;;4992597;28;20058;-62
2021/12/13 12:10:12;;;;;;;13.85;9.48;;;13.80;99.90;;;;;;4992066;28;20408;-62
2021/12/13 12:13:27;;;;;;;16.05;9.63;;;13.80;99.90;;;;;;4992489;28;20124;-65
2021/12/13 12:15:55;;;;;;;14.20;9.23;;;13.60;99.90;;;;;;4913442;29;20067;-61
2021/12/13 12:18:21;;;;;;;13.75;9.02;;;;;;;;;;4915649;29;20044;-62
2021/12/13 12:21:11;;;;;;;13.35;9.10;;;13.70;99.90;;;;;;4957785;28;20109;-61
2021/12/13 12:23:38;;;;;;;16.88;9.10;;;14.00;99.90;;;;;;4992408;28;20520;-61
2021/12/13 12:26:04;;;;;;;14.23;8.75;;;13.60;99.90;;;;;;4991994;28;20416;-68
2021/12/13 12:28:31;;;;;;;14.23;9.07;;;13.90;99.90;;;;;;4976160;28;20054;-62
2021/12/13 12:30:58;;;;;;;14.60;9.13;;;13.90;99.90;;;;;;4992119;28;20051;-61
2021/12/13 12:33:31;;;;;;;15.73;8.77;;;13.70;99.90;;;;;;4992362;28;20112;-60
2021/12/13 12:35:57;;;;;;;15.55;9.07;;;13.70;99.90;;;;;;4991010;28;20182;-61
2021/12/13 12:39:00;;;;;;;12.90;8.55;;;13.90;99.90;;;;;;4992060;28;20069;-62
2021/12/13 12:41:41;;;;;;;13.73;8.50;;;14.00;99.90;;;;;;4991893;28;20177;-61
2021/12/13 12:44:06;;;;;;;14.13;8.27;;;13.90;99.90;;;;;;4991783;28;20042;-64
2021/12/13 12:46:39;;;;;;;19.67;8.93;;;14.00;99.90;;;;;;4990851;28;20117;-62
2021/12/13 12:49:05;;;;;;;20.13;9.27;;;13.90;99.90;;;;;;4990851;28;20130;-62
2021/12/13 12:51:32;;;;;;;19.55;8.88;;;14.00;99.90;;;;;;4974544;28;20057;-62
2021/12/13 12:54:09;;;;;;;17.20;8.75;;;13.90;99.90;;;;;;5054542;28;20077;-62
2021/12/13 12:56:44;;;;;;;18.40;8.48;;;14.00;99.90;;;;;;5054079;28;20494;-62
2021/12/13 12:59:50;;;;;;;14.20;8.27;;;13.90;99.90;;;;;;5072560;28;20114;-61
2021/12/13 13:02:16;;;;;;;17.33;8.48;;;14.00;99.90;;;;;;5038473;28;20041;-61
2021/12/13 13:04:50;;;;;;;16.50;8.63;;;13.90;99.90;;;;;;5051255;28;20052;-61
2021/12/13 13:07:20;;;;;;;17.95;8.70;;;14.00;99.90;;;;;;5043004;28;20080;-61
2021/12/13 13:09:56;;;;;;;14.57;8.43;;;13.70;99.90;;;;;;5011474;28;20161;-61
2021/12/13 13:12:33;;;;;;;14.57;7.85;;;14.00;99.90;;;;;;5014075;28;20184;-61
2021/12/13 13:14:59;;;;;;;15.05;8.05;;;13.90;99.90;;;;;;5031162;28;20461;-60
2021/12/13 13:17:27;;;;;;;15.15;8.50;;;13.90;99.90;;;;;;5031272;28;20041;-61
2021/12/13 13:19:58;;;;;;;14.13;8.50;;;14.00;99.90;;;;;;5031964;28;20045;-61
2021/12/13 13:22:27;;;;;;;14.93;8.48;;;13.90;99.90;;;;;;5035128;28;20057;-61
2021/12/13 13:24:56;;;;;;;14.18;7.95;;;13.60;99.90;;;;;;5035007;28;20041;-61
2021/12/13 13:27:24;;;;;;;12.18;7.82;;;13.70;99.90;;;;;;5018583;28;20095;-61
2021/12/13 13:29:50;;;;;;;16.02;8.52;;;13.60;99.90;;;;;;5017818;28;20045;-61
2021/12/13 13:32:16;;;;;;;15.13;8.68;;;13.70;99.90;;;;;;5034353;28;20041;-61
2021/12/13 13:34:46;;;;;;;14.95;8.25;;;14.10;99.90;;;;;;5035750;28;20049;-61